createdAt,value
2019-03-23T00:02:30.651Z,1.40
2019-03-23T00:05:01.299Z,1.40
2019-03-23T00:07:32.020Z,1.40
2019-03-23T00:10:02.680Z,1.40
2019-03-23T00:12:33.416Z,1.30
2019-03-23T00:15:06.957Z,1.30
2019-03-23T00:17:37.483Z,1.30
2019-03-23T00:20:09.238Z,1.20
2019-03-23T00:22:39.840Z,1.20
2019-03-23T00:25:10.715Z,1.20
2019-03-23T00:27:43.914Z,1.20
2019-03-23T00:30:14.998Z,1.20
2019-03-23T00:32:45.592Z,1.20
2019-03-23T00:35:16.404Z,1.10
2019-03-23T00:37:47.017Z,1.10
2019-03-23T00:40:17.549Z,1.10
2019-03-23T00:42:48.196Z,1.10
2019-03-23T00:45:18.774Z,1.00
2019-03-23T00:47:49.343Z,1.10
2019-03-23T00:50:19.943Z,1.00
2019-03-23T00:52:50.534Z,1.00
2019-03-23T00:55:21.236Z,1.00
2019-03-23T00:57:51.866Z,0.90
2019-03-23T01:00:22.641Z,0.90
2019-03-23T01:02:53.407Z,0.90
2019-03-23T01:05:24.135Z,0.80
2019-03-23T01:07:54.988Z,0.80
2019-03-23T01:10:25.651Z,0.80
2019-03-23T01:12:56.214Z,0.70
2019-03-23T01:15:26.793Z,0.70
2019-03-23T01:17:57.381Z,0.60
2019-03-23T01:20:28.073Z,0.60
2019-03-23T01:22:58.781Z,0.60
2019-03-23T01:25:29.196Z,0.70
2019-03-23T01:27:59.773Z,0.70
2019-03-23T01:30:30.441Z,0.70
2019-03-23T01:33:01.059Z,0.80
2019-03-23T01:35:31.659Z,0.80
2019-03-23T01:38:02.287Z,0.80
2019-03-23T01:40:32.985Z,0.80
2019-03-23T01:43:03.586Z,0.80
2019-03-23T01:45:34.151Z,0.80
2019-03-23T01:48:04.826Z,0.70
2019-03-23T01:50:35.361Z,0.70
2019-03-23T01:53:05.904Z,0.60
2019-03-23T01:55:36.513Z,0.60
2019-03-23T01:58:07.259Z,0.60
2019-03-23T02:00:37.959Z,0.50
2019-03-23T02:03:08.746Z,0.50
2019-03-23T02:05:39.258Z,0.50
2019-03-23T02:08:09.843Z,0.40
2019-03-23T02:10:41.935Z,0.40
2019-03-23T02:13:12.745Z,0.40
2019-03-23T02:15:43.345Z,0.40
2019-03-23T02:18:14.004Z,0.30
2019-03-23T02:20:44.599Z,0.30
2019-03-23T02:23:18.051Z,0.30
2019-03-23T02:25:48.565Z,0.20
2019-03-23T02:28:19.164Z,0.20
2019-03-23T02:30:49.811Z,0.10
2019-03-23T02:33:21.949Z,0.10
2019-03-23T02:35:52.511Z,0.10
2019-03-23T02:38:23.018Z,0.10
2019-03-23T02:40:53.660Z,0.10
2019-03-23T02:43:24.264Z,0.00
2019-03-23T02:45:54.888Z,0.00
2019-03-23T02:48:25.704Z,0.00
2019-03-23T02:50:56.331Z,0.00
2019-03-23T02:53:26.972Z,0.00
2019-03-23T02:55:57.607Z,-0.10
2019-03-23T02:58:28.257Z,-0.10
2019-03-23T03:00:58.938Z,-0.10
2019-03-23T03:03:29.541Z,0.00
2019-03-23T03:06:00.293Z,0.00
2019-03-23T03:08:30.965Z,-0.10
2019-03-23T03:11:01.596Z,-0.10
2019-03-23T03:13:32.148Z,-0.10
2019-03-23T03:16:02.809Z,-0.10
2019-03-23T03:18:34.598Z,-0.10
2019-03-23T03:21:06.356Z,-0.20
2019-03-23T03:23:37.898Z,-0.20
2019-03-23T03:26:08.517Z,-0.30
2019-03-23T03:28:39.053Z,-0.20
2019-03-23T03:31:09.570Z,-0.30
2019-03-23T03:33:40.145Z,-0.30
2019-03-23T03:36:10.939Z,-0.20
2019-03-23T03:38:41.655Z,-0.20
2019-03-23T03:41:12.399Z,-0.30
2019-03-23T03:43:43.085Z,-0.20
2019-03-23T03:46:13.720Z,-0.30
2019-03-23T03:48:44.313Z,-0.30
2019-03-23T03:51:14.883Z,-0.40
2019-03-23T03:53:45.543Z,-0.40
2019-03-23T03:56:16.031Z,-0.50
2019-03-23T03:58:46.677Z,-0.50
2019-03-23T04:01:17.286Z,-0.50
2019-03-23T04:03:50.077Z,-0.50
2019-03-23T04:06:20.938Z,-0.60
2019-03-23T04:08:51.617Z,-0.60
2019-03-23T04:11:22.211Z,-0.60
2019-03-23T04:13:52.637Z,-0.60
2019-03-23T04:16:23.188Z,-0.60
2019-03-23T04:18:53.754Z,-0.60
2019-03-23T04:21:24.441Z,-0.60
2019-03-23T04:23:54.936Z,-0.70
2019-03-23T04:26:27.092Z,-0.70
2019-03-23T04:28:57.627Z,-0.80
2019-03-23T04:31:28.222Z,-0.80
2019-03-23T04:33:58.775Z,-0.80
2019-03-23T04:36:30.194Z,-0.80
2019-03-23T04:39:00.769Z,-0.80
2019-03-23T04:41:33.213Z,-0.80
2019-03-23T04:44:03.793Z,-0.80
2019-03-23T04:46:36.069Z,-0.90
2019-03-23T04:49:06.673Z,-0.90
2019-03-23T04:51:37.233Z,-0.90
2019-03-23T04:54:07.860Z,-0.90
2019-03-23T04:56:38.445Z,-0.90
2019-03-23T04:59:08.995Z,-0.80
2019-03-23T05:01:39.607Z,-0.80
2019-03-23T05:04:10.061Z,-0.80
2019-03-23T05:06:42.540Z,-0.80
2019-03-23T05:09:12.829Z,-0.80
2019-03-23T05:11:43.468Z,-0.80
2019-03-23T05:14:13.953Z,-0.80
2019-03-23T05:16:44.507Z,-0.80
2019-03-23T05:19:15.186Z,-0.70
2019-03-23T05:21:45.734Z,-0.70
2019-03-23T05:24:16.290Z,-0.70
2019-03-23T05:26:47.101Z,-0.70
2019-03-23T05:29:17.556Z,-0.60
2019-03-23T05:31:48.135Z,-0.60
2019-03-23T05:34:18.857Z,-0.50
2019-03-23T05:36:49.336Z,-0.40
2019-03-23T05:39:20.991Z,-0.40
2019-03-23T05:41:51.619Z,-0.30
2019-03-23T05:44:22.187Z,-0.20
2019-03-23T05:46:54.390Z,-0.10
2019-03-23T05:49:25.118Z,0.00
2019-03-23T05:51:56.951Z,0.00
2019-03-23T05:54:27.430Z,0.10
2019-03-23T05:56:58.035Z,0.20
2019-03-23T05:59:28.627Z,0.40
2019-03-23T06:01:59.096Z,0.40
2019-03-23T06:04:29.587Z,0.60
2019-03-23T06:07:00.071Z,0.60
2019-03-23T06:09:30.635Z,0.80
2019-03-23T06:12:01.127Z,0.90
2019-03-23T06:14:32.353Z,1.00
2019-03-23T06:17:02.956Z,1.10
2019-03-23T06:19:33.765Z,1.20
2019-03-23T06:22:04.506Z,1.30
2019-03-23T06:24:36.256Z,1.50
2019-03-23T06:27:07.317Z,1.60
2019-03-23T06:29:37.835Z,1.70
2019-03-23T06:32:08.444Z,1.90
2019-03-23T06:34:39.149Z,2.00
2019-03-23T06:37:09.587Z,2.20
2019-03-23T06:39:40.328Z,2.30
2019-03-23T06:42:10.814Z,2.50
2019-03-23T06:44:41.350Z,2.60
2019-03-23T06:47:11.936Z,2.80
2019-03-23T06:49:42.528Z,3.00
2019-03-23T06:52:13.055Z,3.30
2019-03-23T06:54:43.769Z,3.70
2019-03-23T06:57:14.495Z,3.90
2019-03-23T06:59:44.993Z,4.20
2019-03-23T07:02:15.615Z,4.50
2019-03-23T07:04:46.228Z,4.80
2019-03-23T07:07:16.946Z,5.10
2019-03-23T07:09:47.488Z,5.40
2019-03-23T07:12:18.518Z,5.70
2019-03-23T07:14:50.127Z,6.00
2019-03-23T07:17:23.177Z,6.20
2019-03-23T07:19:54.610Z,6.50
2019-03-23T07:22:25.735Z,6.60
2019-03-23T07:24:57.225Z,6.70
2019-03-23T07:27:28.431Z,6.90
2019-03-23T07:29:59.083Z,7.10
2019-03-23T07:32:29.952Z,7.20
2019-03-23T07:35:01.487Z,7.20
2019-03-23T07:37:33.359Z,7.30
2019-03-23T07:40:07.892Z,7.40
2019-03-23T07:42:48.707Z,7.50
2019-03-23T07:45:35.280Z,7.70
2019-03-23T07:48:08.404Z,7.80
2019-03-23T07:50:42.376Z,7.80
2019-03-23T07:53:13.134Z,7.80
2019-03-23T07:55:45.725Z,7.90
2019-03-23T07:58:20.097Z,7.90
2019-03-23T08:00:51.934Z,8.00
2019-03-23T08:03:22.635Z,8.00
2019-03-23T08:06:00.816Z,8.20
2019-03-23T08:08:32.505Z,8.30
2019-03-23T08:11:03.489Z,8.40
2019-03-23T08:13:34.130Z,8.50
2019-03-23T08:16:05.009Z,8.60
2019-03-23T08:18:37.048Z,8.70
2019-03-23T08:21:08.309Z,8.80
2019-03-23T08:23:38.819Z,8.80
2019-03-23T08:26:09.648Z,8.90
2019-03-23T08:28:40.280Z,9.00
2019-03-23T08:31:10.888Z,9.00
2019-03-23T08:33:41.707Z,9.10
2019-03-23T08:36:14.101Z,9.10
2019-03-23T08:38:44.818Z,9.20
2019-03-23T08:41:18.972Z,9.30
2019-03-23T08:43:49.556Z,9.40
2019-03-23T08:46:20.311Z,9.50
2019-03-23T08:48:50.924Z,9.60
2019-03-23T08:51:21.474Z,9.60
2019-03-23T08:53:52.107Z,9.70
2019-03-23T08:56:22.724Z,9.80
2019-03-23T08:58:51.308Z,9.80
2019-03-23T09:01:22.067Z,9.90
2019-03-23T09:03:52.923Z,10.00
2019-03-23T09:06:23.469Z,10.10
2019-03-23T09:08:53.976Z,10.20
2019-03-23T09:11:24.598Z,10.30
2019-03-23T09:13:55.329Z,10.40
2019-03-23T09:16:26.097Z,10.50
2019-03-23T09:18:56.870Z,10.60
2019-03-23T09:21:27.484Z,10.70
2019-03-23T09:23:58.168Z,10.90
2019-03-23T09:26:28.789Z,11.00
2019-03-23T09:28:59.370Z,11.00
2019-03-23T09:31:29.917Z,11.10
2019-03-23T09:34:00.487Z,11.20
2019-03-23T09:36:31.193Z,11.20
2019-03-23T09:39:01.838Z,11.30
2019-03-23T09:41:41.156Z,11.40
2019-03-23T09:44:11.688Z,11.60
2019-03-23T09:46:42.348Z,11.70
2019-03-23T09:49:13.012Z,11.70
2019-03-23T09:52:51.052Z,11.90
2019-03-23T09:55:28.680Z,12.00
2019-03-23T09:57:59.988Z,12.20
2019-03-23T10:00:30.991Z,12.50
2019-03-23T10:03:07.901Z,12.80
2019-03-23T10:05:39.590Z,13.00
2019-03-23T10:08:11.713Z,13.40
2019-03-23T10:10:46.490Z,13.80
2019-03-23T10:13:27.733Z,14.20
2019-03-23T10:16:17.770Z,14.60
2019-03-23T10:18:58.849Z,15.10
2019-03-23T10:21:38.291Z,16.00
2019-03-23T10:24:28.348Z,17.10
2019-03-23T10:27:03.833Z,19.00
2019-03-23T10:29:39.868Z,21.50
2019-03-23T10:32:27.965Z,23.80
2019-03-23T10:35:10.883Z,25.80
2019-03-23T10:37:58.174Z,27.30
2019-03-23T10:40:47.780Z,28.40
2019-03-23T10:43:36.213Z,28.90
2019-03-23T10:46:27.643Z,29.40
2019-03-23T10:49:28.085Z,30.40
2019-03-23T10:52:21.311Z,31.00
2019-03-23T10:55:11.465Z,32.20
2019-03-23T10:58:01.324Z,32.90
2019-03-23T11:00:50.322Z,34.00
2019-03-23T11:03:39.083Z,34.20
2019-03-23T11:06:26.123Z,34.80
2019-03-23T11:09:27.209Z,35.20
2019-03-23T11:12:16.543Z,35.30
2019-03-23T11:15:03.139Z,35.40
2019-03-23T11:17:45.371Z,35.90
2019-03-23T11:20:33.727Z,37.00
2019-03-23T11:23:19.449Z,36.90
2019-03-23T11:26:13.604Z,36.60
2019-03-23T11:29:11.613Z,36.30
2019-03-23T11:31:59.631Z,35.50
2019-03-23T11:34:47.375Z,35.70
2019-03-23T11:37:38.112Z,36.60
2019-03-23T11:40:28.618Z,37.00
2019-03-23T11:43:01.706Z,37.00
2019-03-23T11:45:32.467Z,36.30
2019-03-23T11:48:03.022Z,36.20
2019-03-23T11:50:34.011Z,36.90
2019-03-23T11:53:04.663Z,38.00
2019-03-23T11:55:36.695Z,38.20
2019-03-23T11:58:07.389Z,38.90
2019-03-23T12:00:38.118Z,39.30
2019-03-23T12:03:08.806Z,39.70
2019-03-23T12:05:39.429Z,39.90
2019-03-23T12:08:10.068Z,40.00
2019-03-23T12:10:41.412Z,39.30
2019-03-23T12:13:12.179Z,39.60
2019-03-23T12:15:42.819Z,39.40
2019-03-23T12:18:13.396Z,37.90
2019-03-23T12:20:43.932Z,35.70
2019-03-23T12:23:14.545Z,32.50
2019-03-23T12:25:45.367Z,30.20
2019-03-23T12:28:15.849Z,28.90
2019-03-23T12:30:46.493Z,28.20
2019-03-23T12:33:17.055Z,27.20
2019-03-23T12:35:47.733Z,26.80
2019-03-23T12:38:18.319Z,26.50
2019-03-23T12:40:58.449Z,26.40
2019-03-23T12:43:31.971Z,26.30
2019-03-23T12:46:02.561Z,26.00
2019-03-23T12:48:33.196Z,25.90
2019-03-23T12:51:03.750Z,25.30
2019-03-23T12:53:34.286Z,25.10
2019-03-23T12:56:04.987Z,24.60
2019-03-23T12:58:35.614Z,24.10
2019-03-23T13:01:06.394Z,23.60
2019-03-23T13:03:37.016Z,23.30
2019-03-23T13:06:07.775Z,23.20
2019-03-23T13:08:38.451Z,23.20
2019-03-23T13:11:09.230Z,23.20
2019-03-23T13:13:40.019Z,23.10
2019-03-23T13:16:10.539Z,22.70
2019-03-23T13:18:41.192Z,22.30
2019-03-23T13:21:11.831Z,22.00
2019-03-23T13:23:42.453Z,22.00
2019-03-23T13:26:13.134Z,22.00
2019-03-23T13:28:43.713Z,22.10
2019-03-23T13:31:14.337Z,23.00
2019-03-23T13:33:45.103Z,24.10
2019-03-23T13:36:15.719Z,25.40
2019-03-23T13:38:46.369Z,26.60
2019-03-23T13:41:16.978Z,27.00
2019-03-23T13:43:47.531Z,26.50
2019-03-23T13:46:18.191Z,26.00
2019-03-23T13:48:48.929Z,25.50
2019-03-23T13:51:19.478Z,25.10
2019-03-23T13:53:50.208Z,24.70
2019-03-23T13:56:21.148Z,24.30
2019-03-23T13:58:51.669Z,24.10
2019-03-23T14:01:23.313Z,24.10
2019-03-23T14:03:53.973Z,23.80
2019-03-23T14:06:24.571Z,23.70
2019-03-23T14:08:55.269Z,23.70
2019-03-23T14:11:25.916Z,23.60
2019-03-23T14:13:56.611Z,23.40
2019-03-23T14:16:27.167Z,22.80
2019-03-23T14:18:57.899Z,22.40
2019-03-23T14:21:28.530Z,22.30
2019-03-23T14:23:59.148Z,22.40
2019-03-23T14:26:29.707Z,22.40
2019-03-23T14:29:00.265Z,22.50
2019-03-23T14:31:30.995Z,22.20
2019-03-23T14:34:01.667Z,22.20
2019-03-23T14:36:32.355Z,22.00
2019-03-23T14:39:05.587Z,21.90
2019-03-23T14:41:36.330Z,21.90
2019-03-23T14:44:06.970Z,21.90
2019-03-23T14:46:37.780Z,21.90
2019-03-23T14:49:08.431Z,21.80
2019-03-23T14:51:39.032Z,21.80
2019-03-23T14:54:09.587Z,21.80
2019-03-23T14:56:40.148Z,21.70
2019-03-23T14:59:10.830Z,21.70
2019-03-23T15:01:41.375Z,21.70
2019-03-23T15:04:13.193Z,21.50
2019-03-23T15:06:43.856Z,21.20
2019-03-23T15:09:14.564Z,20.90
2019-03-23T15:11:45.198Z,20.80
2019-03-23T15:14:15.895Z,20.80
2019-03-23T15:16:46.437Z,21.10
2019-03-23T15:19:16.987Z,21.50
2019-03-23T15:21:47.630Z,22.00
2019-03-23T15:24:18.166Z,22.50
2019-03-23T15:26:48.906Z,22.60
2019-03-23T15:29:19.658Z,22.50
2019-03-23T15:31:51.085Z,22.30
2019-03-23T15:34:21.683Z,21.80
2019-03-23T15:36:52.268Z,21.50
2019-03-23T15:39:22.895Z,21.30
2019-03-23T15:41:53.424Z,21.20
2019-03-23T15:44:24.332Z,20.80
2019-03-23T15:46:54.813Z,20.70
2019-03-23T15:49:26.567Z,20.80
2019-03-23T15:51:57.163Z,20.70
2019-03-23T15:54:27.804Z,20.50
2019-03-23T15:56:58.446Z,20.30
2019-03-23T15:59:29.088Z,19.90
2019-03-23T16:01:59.565Z,19.50
2019-03-23T16:04:30.129Z,19.20
2019-03-23T16:07:00.874Z,19.00
2019-03-23T16:09:31.612Z,18.80
2019-03-23T16:12:02.360Z,18.60
2019-03-23T16:14:32.915Z,18.40
2019-03-23T16:17:03.755Z,18.30
2019-03-23T16:19:34.447Z,18.10
2019-03-23T16:22:07.015Z,18.00
2019-03-23T16:24:37.786Z,17.80
2019-03-23T16:27:09.395Z,17.70
2019-03-23T16:29:41.222Z,17.70
2019-03-23T16:32:12.007Z,17.50
2019-03-23T16:34:42.602Z,17.50
2019-03-23T16:37:13.091Z,17.30
2019-03-23T16:39:43.636Z,17.20
2019-03-23T16:42:14.428Z,17.10
2019-03-23T16:44:45.211Z,16.90
2019-03-23T16:47:15.847Z,16.80
2019-03-23T16:49:46.468Z,16.70
2019-03-23T16:52:17.035Z,16.60
2019-03-23T16:54:47.802Z,16.40
2019-03-23T16:57:18.664Z,16.30
2019-03-23T16:59:49.272Z,16.10
2019-03-23T17:02:22.901Z,15.90
2019-03-23T17:04:54.660Z,15.70
2019-03-23T17:07:30.148Z,15.60
2019-03-23T17:10:01.124Z,15.40
2019-03-23T17:12:31.979Z,15.40
2019-03-23T17:15:03.677Z,15.30
2019-03-23T17:17:36.275Z,15.10
2019-03-23T17:20:07.563Z,15.00
2019-03-23T17:22:38.535Z,14.80
2019-03-23T17:25:09.998Z,14.70
2019-03-23T17:27:41.757Z,14.60
2019-03-23T17:30:18.341Z,14.40
2019-03-23T17:32:53.447Z,14.30
2019-03-23T17:35:35.860Z,14.20
2019-03-23T17:38:15.087Z,14.00
2019-03-23T17:40:47.210Z,13.90
2019-03-23T17:43:18.977Z,13.70
2019-03-23T17:45:53.999Z,13.50
2019-03-23T17:48:29.860Z,13.30
2019-03-23T17:51:00.991Z,13.10
2019-03-23T17:53:31.777Z,13.00
2019-03-23T17:56:02.446Z,12.90
2019-03-23T17:58:33.049Z,12.70
2019-03-23T18:01:05.485Z,12.60
2019-03-23T18:03:36.274Z,12.50
2019-03-23T18:06:07.243Z,12.40
2019-03-23T18:08:37.989Z,12.30
2019-03-23T18:11:08.719Z,12.20
2019-03-23T18:13:39.280Z,12.20
2019-03-23T18:16:09.902Z,12.00
2019-03-23T18:18:40.542Z,11.90
2019-03-23T18:21:11.333Z,11.80
2019-03-23T18:23:45.101Z,11.80
2019-03-23T18:26:15.785Z,11.70
2019-03-23T18:28:46.638Z,11.50
2019-03-23T18:31:17.266Z,11.50
2019-03-23T18:33:47.918Z,11.40
2019-03-23T18:36:18.672Z,11.30
2019-03-23T18:38:49.416Z,11.20
2019-03-23T18:41:20.093Z,11.20
2019-03-23T18:43:50.761Z,11.10
2019-03-23T18:46:21.459Z,11.10
2019-03-23T18:48:52.150Z,11.00
2019-03-23T18:51:22.852Z,10.90
2019-03-23T18:53:55.104Z,10.90
2019-03-23T18:56:25.616Z,10.90
2019-03-23T18:58:56.207Z,10.80
2019-03-23T19:01:27.076Z,10.80
2019-03-23T19:03:57.686Z,10.70
2019-03-23T19:06:28.235Z,10.70
2019-03-23T19:08:58.917Z,10.60
2019-03-23T19:11:30.136Z,10.60
2019-03-23T19:14:02.369Z,10.50
2019-03-23T19:16:33.495Z,10.40
2019-03-23T19:19:04.168Z,10.40
2019-03-23T19:21:34.807Z,10.30
2019-03-23T19:24:05.561Z,10.30
2019-03-23T19:26:36.161Z,10.30
2019-03-23T19:29:07.437Z,10.20
2019-03-23T19:31:38.388Z,10.10
2019-03-23T19:34:08.988Z,10.10
2019-03-23T19:36:42.293Z,10.10
2019-03-23T19:39:12.888Z,10.00
2019-03-23T19:41:44.809Z,10.00
2019-03-23T19:44:44.841Z,9.90
2019-03-23T19:47:33.927Z,9.90
2019-03-23T19:50:18.523Z,9.80
2019-03-23T19:52:51.821Z,9.80
2019-03-23T19:55:28.198Z,9.70
2019-03-23T19:58:02.295Z,9.60
2019-03-23T20:00:35.982Z,9.60
2019-03-23T20:03:06.868Z,9.60
2019-03-23T20:05:37.516Z,9.50
2019-03-23T20:08:09.305Z,9.50
2019-03-23T20:10:46.343Z,9.50
2019-03-23T20:13:22.875Z,9.50
2019-03-23T20:15:54.222Z,9.40
2019-03-23T20:18:27.863Z,9.40
2019-03-23T20:20:58.529Z,9.60
2019-03-23T20:24:02.561Z,9.70
2019-03-23T20:26:45.957Z,9.80
2019-03-23T20:29:31.531Z,10.00
2019-03-23T20:32:09.582Z,10.10
2019-03-23T20:34:43.958Z,10.30
2019-03-23T20:37:18.455Z,10.40
2019-03-23T20:39:49.748Z,10.50
2019-03-23T20:42:20.649Z,10.60
2019-03-23T20:44:53.676Z,10.80
2019-03-23T20:47:24.932Z,10.90
2019-03-23T20:49:56.736Z,10.90
2019-03-23T20:52:27.488Z,11.00
2019-03-23T20:55:07.871Z,11.10
2019-03-23T20:57:40.798Z,11.10
2019-03-23T21:00:12.576Z,11.20
2019-03-23T21:02:43.527Z,11.20
2019-03-23T21:05:15.975Z,11.30
2019-03-23T21:07:47.016Z,11.40
2019-03-23T21:10:18.670Z,11.50
2019-03-23T21:12:49.848Z,11.50
2019-03-23T21:15:21.577Z,11.50
2019-03-23T21:18:05.890Z,11.60
2019-03-23T21:23:33.534Z,11.60
2019-03-23T21:26:07.763Z,11.70
2019-03-23T21:28:39.797Z,11.70
2019-03-23T21:31:12.812Z,11.70
2019-03-23T21:33:43.817Z,11.70
2019-03-23T21:36:15.387Z,11.70
2019-03-23T21:38:47.104Z,11.70
2019-03-23T21:41:17.768Z,11.70
2019-03-23T21:43:55.168Z,11.60
2019-03-23T21:46:29.132Z,11.60
2019-03-23T21:48:59.923Z,11.60
2019-03-23T21:51:31.060Z,11.60
2019-03-23T21:54:01.702Z,11.60
2019-03-23T21:56:32.414Z,11.50
2019-03-23T21:59:04.273Z,11.50
2019-03-23T22:01:34.955Z,11.50
2019-03-23T22:04:05.989Z,11.50
2019-03-23T22:06:36.588Z,11.50
2019-03-23T22:09:08.230Z,11.40
2019-03-23T22:11:38.888Z,11.50
2019-03-23T22:14:10.020Z,11.40
2019-03-23T22:16:40.767Z,11.40
2019-03-23T22:19:11.848Z,11.40
2019-03-23T22:21:44.406Z,11.40
2019-03-23T22:24:15.430Z,11.40
2019-03-23T22:26:46.013Z,11.30
2019-03-23T22:29:17.148Z,11.20
2019-03-23T22:31:48.095Z,11.20
2019-03-23T22:34:18.757Z,11.20
2019-03-23T22:36:49.390Z,11.20
2019-03-23T22:39:20.091Z,11.10
2019-03-23T22:41:50.608Z,11.10
2019-03-23T22:44:21.420Z,11.00
2019-03-23T22:46:52.255Z,11.00
2019-03-23T22:49:23.064Z,10.90
2019-03-23T22:51:53.645Z,10.80
2019-03-23T22:54:24.316Z,10.80
2019-03-23T22:56:56.241Z,10.70
2019-03-23T22:59:27.114Z,10.70
2019-03-23T23:01:57.920Z,10.60
2019-03-23T23:04:28.680Z,10.60
2019-03-23T23:06:59.440Z,10.50
2019-03-23T23:09:30.221Z,10.40
2019-03-23T23:12:02.453Z,10.30
2019-03-23T23:14:33.252Z,10.30
2019-03-23T23:17:05.088Z,10.20
2019-03-23T23:19:35.640Z,10.20
2019-03-23T23:22:06.481Z,10.10
2019-03-23T23:24:37.171Z,10.00
2019-03-23T23:27:07.939Z,9.90
2019-03-23T23:29:39.756Z,9.90
2019-03-23T23:32:10.469Z,9.80
2019-03-23T23:34:41.203Z,9.80
2019-03-23T23:37:12.036Z,9.80
2019-03-23T23:39:42.720Z,9.80
2019-03-23T23:42:13.407Z,9.70
2019-03-23T23:44:44.153Z,9.70
2019-03-23T23:47:14.845Z,9.60
2019-03-23T23:49:45.586Z,9.60
2019-03-23T23:52:16.172Z,9.50
2019-03-23T23:54:46.775Z,9.40
2019-03-23T23:57:17.523Z,9.40
